sensor_id;sensor_type;location;lat;lon;timestamp;pressure;altitude;pressure_sealevel;temperature;humidity
55576;BME280;41437;45.478;9.116;2022-10-28T00:03:03;101029.94;;;13.69;100.00
55576;BME280;41437;45.478;9.116;2022-10-28T00:06:07;101027.94;;;13.64;100.00
55576;BME280;41437;45.478;9.116;2022-10-28T00:09:15;101020.13;;;13.61;100.00
55576;BME280;41437;45.478;9.116;2022-10-28T00:12:19;101029.88;;;13.64;100.00
55576;BME280;41437;45.478;9.116;2022-10-28T00:15:21;101033.75;;;13.63;100.00
55576;BME280;41437;45.478;9.116;2022-10-28T00:18:23;101043.66;;;13.58;100.00
55576;BME280;41437;45.478;9.116;2022-10-28T00:21:27;101034.81;;;13.62;100.00
55576;BME280;41437;45.478;9.116;2022-10-28T00:24:30;101034.25;;;13.60;100.00
55576;BME280;41437;45.478;9.116;2022-10-28T00:27:32;101048.22;;;13.53;100.00
55576;BME280;41437;45.478;9.116;2022-10-28T00:30:34;101031.72;;;13.41;100.00
55576;BME280;41437;45.478;9.116;2022-10-28T00:33:36;101029.53;;;13.43;100.00
55576;BME280;41437;45.478;9.116;2022-10-28T00:36:40;101036.81;;;13.49;100.00
55576;BME280;41437;45.478;9.116;2022-10-28T00:39:43;101030.72;;;13.47;100.00
55576;BME280;41437;45.478;9.116;2022-10-28T00:42:45;101033.75;;;13.46;100.00
55576;BME280;41437;45.478;9.116;2022-10-28T00:45:46;101033.41;;;13.42;100.00
55576;BME280;41437;45.478;9.116;2022-10-28T00:48:56;101027.03;;;13.42;100.00
55576;BME280;41437;45.478;9.116;2022-10-28T00:52:02;101032.78;;;13.40;100.00
55576;BME280;41437;45.478;9.116;2022-10-28T00:55:07;101033.88;;;13.39;100.00
55576;BME280;41437;45.478;9.116;2022-10-28T00:58:09;101032.22;;;13.38;100.00
55576;BME280;41437;45.478;9.116;2022-10-28T01:01:12;101024.91;;;13.32;100.00
55576;BME280;41437;45.478;9.116;2022-10-28T01:04:15;101023.81;;;13.33;100.00
55576;BME280;41437;45.478;9.116;2022-10-28T01:07:17;101022.13;;;13.32;100.00
55576;BME280;41437;45.478;9.116;2022-10-28T01:10:25;101022.38;;;13.30;100.00
55576;BME280;41437;45.478;9.116;2022-10-28T01:13:36;101008.25;;;13.15;100.00
55576;BME280;41437;45.478;9.116;2022-10-28T01:16:45;101024.22;;;13.25;100.00
55576;BME280;41437;45.478;9.116;2022-10-28T01:20:14;101024.47;;;13.23;100.00
55576;BME280;41437;45.478;9.116;2022-10-28T01:23:28;101015.22;;;13.18;100.00
55576;BME280;41437;45.478;9.116;2022-10-28T01:26:55;101029.38;;;13.21;100.00
55576;BME280;41437;45.478;9.116;2022-10-28T01:30:08;101000.72;;;13.11;100.00
55576;BME280;41437;45.478;9.116;2022-10-28T01:33:19;101014.63;;;13.16;100.00
55576;BME280;41437;45.478;9.116;2022-10-28T01:36:31;101011.16;;;13.08;100.00
55576;BME280;41437;45.478;9.116;2022-10-28T01:39:40;101009.50;;;13.07;100.00
55576;BME280;41437;45.478;9.116;2022-10-28T01:42:51;100974.59;;;12.90;100.00
55576;BME280;41437;45.478;9.116;2022-10-28T01:45:59;101002.53;;;13.05;100.00
55576;BME280;41437;45.478;9.116;2022-10-28T01:49:08;101007.56;;;13.08;100.00
55576;BME280;41437;45.478;9.116;2022-10-28T01:52:13;101016.97;;;13.07;100.00
55576;BME280;41437;45.478;9.116;2022-10-28T01:55:20;101015.28;;;13.06;100.00
55576;BME280;41437;45.478;9.116;2022-10-28T01:58:27;101003.28;;;13.00;100.00
55576;BME280;41437;45.478;9.116;2022-10-28T02:01:30;100999.59;;;12.95;100.00
55576;BME280;41437;45.478;9.116;2022-10-28T02:04:35;101005.13;;;12.95;100.00
55576;BME280;41437;45.478;9.116;2022-10-28T02:07:37;100997.56;;;12.90;100.00
55576;BME280;41437;45.478;9.116;2022-10-28T02:10:43;101000.91;;;12.92;100.00
55576;BME280;41437;45.478;9.116;2022-10-28T02:13:56;101004.19;;;12.89;100.00
55576;BME280;41437;45.478;9.116;2022-10-28T02:17:09;101001.41;;;12.89;100.00
55576;BME280;41437;45.478;9.116;2022-10-28T02:20:20;101000.03;;;12.75;100.00
55576;BME280;41437;45.478;9.116;2022-10-28T02:23:32;100997.19;;;12.58;100.00
55576;BME280;41437;45.478;9.116;2022-10-28T02:26:43;100996.97;;;12.60;100.00
55576;BME280;41437;45.478;9.116;2022-10-28T02:29:52;100987.00;;;12.58;100.00
55576;BME280;41437;45.478;9.116;2022-10-28T02:32:57;100990.69;;;12.64;100.00
55576;BME280;41437;45.478;9.116;2022-10-28T02:36:03;100997.44;;;12.56;100.00
55576;BME280;41437;45.478;9.116;2022-10-28T02:39:06;100996.97;;;12.60;100.00
55576;BME280;41437;45.478;9.116;2022-10-28T02:42:11;101000.31;;;12.62;100.00
55576;BME280;41437;45.478;9.116;2022-10-28T02:45:18;100995.31;;;12.58;100.00
55576;BME280;41437;45.478;9.116;2022-10-28T02:48:25;100996.16;;;12.47;100.00
55576;BME280;41437;45.478;9.116;2022-10-28T02:51:33;100998.84;;;12.42;100.00
55576;BME280;41437;45.478;9.116;2022-10-28T02:54:38;100997.38;;;12.40;100.00
55576;BME280;41437;45.478;9.116;2022-10-28T02:57:43;100999.78;;;12.36;100.00
55576;BME280;41437;45.478;9.116;2022-10-28T03:00:47;100984.56;;;12.33;100.00
55576;BME280;41437;45.478;9.116;2022-10-28T03:03:50;101003.75;;;12.40;100.00
55576;BME280;41437;45.478;9.116;2022-10-28T03:06:53;101010.25;;;12.46;100.00
55576;BME280;41437;45.478;9.116;2022-10-28T03:09:55;101001.94;;;12.46;100.00
55576;BME280;41437;45.478;9.116;2022-10-28T03:12:57;101006.13;;;12.48;100.00
55576;BME280;41437;45.478;9.116;2022-10-28T03:16:04;101005.56;;;12.46;100.00
55576;BME280;41437;45.478;9.116;2022-10-28T03:19:06;100991.28;;;12.38;100.00
55576;BME280;41437;45.478;9.116;2022-10-28T03:22:09;101003.72;;;12.52;100.00
55576;BME280;41437;45.478;9.116;2022-10-28T03:25:11;101002.41;;;12.54;100.00
55576;BME280;41437;45.478;9.116;2022-10-28T03:28:12;101001.31;;;12.55;100.00
55576;BME280;41437;45.478;9.116;2022-10-28T03:31:14;101014.03;;;12.56;100.00
55576;BME280;41437;45.478;9.116;2022-10-28T03:34:17;100994.34;;;12.53;100.00
55576;BME280;41437;45.478;9.116;2022-10-28T03:37:20;101000.47;;;12.55;100.00
55576;BME280;41437;45.478;9.116;2022-10-28T03:40:22;101001.94;;;12.46;100.00
55576;BME280;41437;45.478;9.116;2022-10-28T03:43:24;101001.59;;;12.42;100.00
55576;BME280;41437;45.478;9.116;2022-10-28T03:46:25;101002.19;;;12.44;100.00
55576;BME280;41437;45.478;9.116;2022-10-28T03:49:27;101004.09;;;12.44;100.00
55576;BME280;41437;45.478;9.116;2022-10-28T03:52:30;100994.72;;;12.45;100.00
55576;BME280;41437;45.478;9.116;2022-10-28T03:55:32;100998.34;;;12.45;100.00
55576;BME280;41437;45.478;9.116;2022-10-28T03:58:35;101000.25;;;12.45;100.00
55576;BME280;41437;45.478;9.116;2022-10-28T04:01:37;100995.81;;;12.44;100.00
55576;BME280;41437;45.478;9.116;2022-10-28T04:04:39;100990.06;;;12.45;100.00
55576;BME280;41437;45.478;9.116;2022-10-28T04:07:42;100995.81;;;12.44;100.00
55576;BME280;41437;45.478;9.116;2022-10-28T04:10:44;100997.03;;;12.36;100.00
55576;BME280;41437;45.478;9.116;2022-10-28T04:13:46;101002.91;;;12.40;100.00
55576;BME280;41437;45.478;9.116;2022-10-28T04:16:47;100987.31;;;12.33;100.00
55576;BME280;41437;45.478;9.116;2022-10-28T04:19:49;101001.50;;;12.37;100.00
55576;BME280;41437;45.478;9.116;2022-10-28T04:22:52;100993.44;;;12.36;100.00
55576;BME280;41437;45.478;9.116;2022-10-28T04:25:54;101002.44;;;12.31;100.00
55576;BME280;41437;45.478;9.116;2022-10-28T04:28:56;100993.81;;;12.27;100.00
55576;BME280;41437;45.478;9.116;2022-10-28T04:32:01;100998.75;;;12.25;100.00
55576;BME280;41437;45.478;9.116;2022-10-28T04:35:04;100990.72;;;12.24;100.00
55576;BME280;41437;45.478;9.116;2022-10-28T04:38:10;100990.47;;;12.25;100.00
55576;BME280;41437;45.478;9.116;2022-10-28T04:41:13;101002.34;;;12.26;100.00
55576;BME280;41437;45.478;9.116;2022-10-28T04:44:15;100997.44;;;12.28;100.00
55576;BME280;41437;45.478;9.116;2022-10-28T04:47:17;101000.19;;;12.28;100.00
55576;BME280;41437;45.478;9.116;2022-10-28T04:50:18;100994.91;;;12.26;100.00
55576;BME280;41437;45.478;9.116;2022-10-28T04:53:22;101004.03;;;12.27;100.00
55576;BME280;41437;45.478;9.116;2022-10-28T04:56:24;101002.50;;;12.19;100.00
55576;BME280;41437;45.478;9.116;2022-10-28T04:59:28;101004.81;;;12.11;100.00
55576;BME280;41437;45.478;9.116;2022-10-28T05:02:29;101007.94;;;12.02;100.00
55576;BME280;41437;45.478;9.116;2022-10-28T05:05:31;100995.19;;;11.78;100.00
55576;BME280;41437;45.478;9.116;2022-10-28T05:08:34;101008.03;;;11.84;100.00
55576;BME280;41437;45.478;9.116;2022-10-28T05:11:36;101002.28;;;11.86;100.00
55576;BME280;41437;45.478;9.116;2022-10-28T05:14:38;101008.88;;;11.73;100.00
55576;BME280;41437;45.478;9.116;2022-10-28T05:17:40;101011.88;;;11.60;100.00
55576;BME280;41437;45.478;9.116;2022-10-28T05:20:43;101008.00;;;11.61;100.00
55576;BME280;41437;45.478;9.116;2022-10-28T05:23:48;100973.56;;;11.51;100.00
55576;BME280;41437;45.478;9.116;2022-10-28T05:26:49;101001.66;;;11.72;100.00
55576;BME280;41437;45.478;9.116;2022-10-28T05:29:51;101007.66;;;11.69;100.00
55576;BME280;41437;45.478;9.116;2022-10-28T05:32:58;100999.47;;;11.62;100.00
55576;BME280;41437;45.478;9.116;2022-10-28T05:35:59;101013.56;;;11.72;100.00
55576;BME280;41437;45.478;9.116;2022-10-28T05:39:03;101007.06;;;11.78;100.00
55576;BME280;41437;45.478;9.116;2022-10-28T05:42:05;101008.03;;;11.84;100.00
55576;BME280;41437;45.478;9.116;2022-10-28T05:45:07;100981.25;;;11.73;100.00
55576;BME280;41437;45.478;9.116;2022-10-28T05:48:09;101008.66;;;11.86;100.00
55576;BME280;41437;45.478;9.116;2022-10-28T05:51:11;101008.75;;;11.91;100.00
55576;BME280;41437;45.478;9.116;2022-10-28T05:54:14;101001.81;;;11.89;100.00
55576;BME280;41437;45.478;9.116;2022-10-28T05:57:16;100996.41;;;11.94;100.00
55576;BME280;41437;45.478;9.116;2022-10-28T06:00:19;101012.13;;;12.05;100.00
55576;BME280;41437;45.478;9.116;2022-10-28T06:03:21;100995.53;;;12.05;100.00
55576;BME280;41437;45.478;9.116;2022-10-28T06:06:23;100992.41;;;12.01;100.00
55576;BME280;41437;45.478;9.116;2022-10-28T06:09:28;101018.72;;;12.16;100.00
55576;BME280;41437;45.478;9.116;2022-10-28T06:12:30;101023.53;;;12.20;100.00
55576;BME280;41437;45.478;9.116;2022-10-28T06:15:32;101019.41;;;12.23;100.00
55576;BME280;41437;45.478;9.116;2022-10-28T06:18:34;101021.59;;;12.21;100.00
55576;BME280;41437;45.478;9.116;2022-10-28T06:21:36;101011.53;;;12.15;100.00
55576;BME280;41437;45.478;9.116;2022-10-28T06:24:39;101023.16;;;12.28;100.00
55576;BME280;41437;45.478;9.116;2022-10-28T06:27:41;101019.03;;;12.31;100.00
55576;BME280;41437;45.478;9.116;2022-10-28T06:30:42;101027.31;;;12.43;100.00
55576;BME280;41437;45.478;9.116;2022-10-28T06:33:44;101032.22;;;12.52;100.00
55576;BME280;41437;45.478;9.116;2022-10-28T06:36:46;101039.03;;;12.62;100.00
55576;BME280;41437;45.478;9.116;2022-10-28T06:39:49;101038.28;;;12.66;100.00
55576;BME280;41437;45.478;9.116;2022-10-28T06:42:56;101035.41;;;12.73;100.00
55576;BME280;41437;45.478;9.116;2022-10-28T06:46:00;101044.97;;;12.82;100.00
55576;BME280;41437;45.478;9.116;2022-10-28T06:49:02;101045.06;;;12.87;100.00
55576;BME280;41437;45.478;9.116;2022-10-28T06:52:05;101046.34;;;12.96;100.00
55576;BME280;41437;45.478;9.116;2022-10-28T06:55:08;101052.09;;;13.06;100.00
55576;BME280;41437;45.478;9.116;2022-10-28T06:58:11;101060.31;;;13.18;100.00
55576;BME280;41437;45.478;9.116;2022-10-28T07:01:13;101051.31;;;13.23;100.00
55576;BME280;41437;45.478;9.116;2022-10-28T07:04:14;101061.97;;;13.31;100.00
55576;BME280;41437;45.478;9.116;2022-10-28T07:07:16;101063.25;;;13.40;100.00
55576;BME280;41437;45.478;9.116;2022-10-28T07:10:20;101071.13;;;13.48;100.00
55576;BME280;41437;45.478;9.116;2022-10-28T07:13:21;101072.50;;;13.63;100.00
55576;BME280;41437;45.478;9.116;2022-10-28T07:16:23;101070.47;;;13.75;100.00
55576;BME280;41437;45.478;9.116;2022-10-28T07:19:25;101080.56;;;13.81;100.00
55576;BME280;41437;45.478;9.116;2022-10-28T07:22:27;101079.38;;;13.94;100.00
55576;BME280;41437;45.478;9.116;2022-10-28T07:25:30;101074.66;;;14.11;100.00
55576;BME280;41437;45.478;9.116;2022-10-28T07:28:32;101075.25;;;14.13;100.00
55576;BME280;41437;45.478;9.116;2022-10-28T07:31:33;101080.91;;;14.23;100.00
55576;BME280;41437;45.478;9.116;2022-10-28T07:34:35;101086.38;;;14.35;100.00
55576;BME280;41437;45.478;9.116;2022-10-28T07:37:38;101078.44;;;14.44;100.00
55576;BME280;41437;45.478;9.116;2022-10-28T07:40:41;101086.69;;;14.55;100.00
55576;BME280;41437;45.478;9.116;2022-10-28T07:43:43;101087.16;;;14.69;100.00
55576;BME280;41437;45.478;9.116;2022-10-28T07:46:45;101083.97;;;14.82;100.00
55576;BME280;41437;45.478;9.116;2022-10-28T07:49:46;101078.28;;;14.94;100.00
55576;BME280;41437;45.478;9.116;2022-10-28T07:52:48;101089.31;;;15.11;100.00
55576;BME280;41437;45.478;9.116;2022-10-28T07:55:55;101089.47;;;15.26;100.00
55576;BME280;41437;45.478;9.116;2022-10-28T07:58:59;101097.69;;;15.43;100.00
55576;BME280;41437;45.478;9.116;2022-10-28T08:02:00;101093.94;;;15.54;100.00
55576;BME280;41437;45.478;9.116;2022-10-28T08:05:04;101099.09;;;15.68;100.00
55576;BME280;41437;45.478;9.116;2022-10-28T08:08:06;101090.81;;;15.78;100.00
55576;BME280;41437;45.478;9.116;2022-10-28T08:11:09;101095.63;;;15.88;100.00
55576;BME280;41437;45.478;9.116;2022-10-28T08:14:11;101092.94;;;15.98;100.00
55576;BME280;41437;45.478;9.116;2022-10-28T08:17:13;101095.47;;;16.04;100.00
55576;BME280;41437;45.478;9.116;2022-10-28T08:20:15;101093.31;;;16.12;100.00
55576;BME280;41437;45.478;9.116;2022-10-28T08:23:19;101086.41;;;16.19;100.00
55576;BME280;41437;45.478;9.116;2022-10-28T08:26:22;101078.91;;;16.20;100.00
55576;BME280;41437;45.478;9.116;2022-10-28T08:29:23;101090.06;;;16.25;100.00
55576;BME280;41437;45.478;9.116;2022-10-28T08:32:25;101076.72;;;16.27;100.00
55576;BME280;41437;45.478;9.116;2022-10-28T08:35:27;101091.53;;;16.38;100.00
55576;BME280;41437;45.478;9.116;2022-10-28T08:38:28;101098.50;;;16.45;99.23
55576;BME280;41437;45.478;9.116;2022-10-28T08:41:35;101091.09;;;16.61;98.90
55576;BME280;41437;45.478;9.116;2022-10-28T08:44:55;101091.47;;;16.75;98.63
55576;BME280;41437;45.478;9.116;2022-10-28T08:48:09;101100.16;;;16.89;98.20
55576;BME280;41437;45.478;9.116;2022-10-28T08:51:17;101099.94;;;17.00;97.86
55576;BME280;41437;45.478;9.116;2022-10-28T08:54:25;101100.53;;;17.13;96.77
55576;BME280;41437;45.478;9.116;2022-10-28T08:57:33;101097.75;;;17.28;93.29
55576;BME280;41437;45.478;9.116;2022-10-28T09:00:38;101101.97;;;17.41;92.16
55576;BME280;41437;45.478;9.116;2022-10-28T09:03:42;101095.88;;;17.49;92.20
55576;BME280;41437;45.478;9.116;2022-10-28T09:06:48;101099.78;;;17.58;92.52
55576;BME280;41437;45.478;9.116;2022-10-28T09:09:51;101105.41;;;17.78;91.45
55576;BME280;41437;45.478;9.116;2022-10-28T09:13:03;101096.75;;;17.95;90.28
55576;BME280;41437;45.478;9.116;2022-10-28T09:16:12;101096.75;;;18.00;90.92
55576;BME280;41437;45.478;9.116;2022-10-28T09:19:31;101096.75;;;18.00;90.18
55576;BME280;41437;45.478;9.116;2022-10-28T09:22:41;101105.13;;;18.16;89.56
55576;BME280;41437;45.478;9.116;2022-10-28T09:25:52;101106.78;;;18.17;88.54
55576;BME280;41437;45.478;9.116;2022-10-28T09:29:11;101098.34;;;18.47;87.43
55576;BME280;41437;45.478;9.116;2022-10-28T09:32:23;101100.84;;;18.59;87.46
55576;BME280;41437;45.478;9.116;2022-10-28T09:35:31;101104.94;;;18.87;86.70
55576;BME280;41437;45.478;9.116;2022-10-28T09:38:35;101099.28;;;19.07;84.66
55576;BME280;41437;45.478;9.116;2022-10-28T09:41:38;101107.91;;;19.16;85.29
55576;BME280;41437;45.478;9.116;2022-10-28T09:44:47;101105.91;;;19.22;85.20
55576;BME280;41437;45.478;9.116;2022-10-28T09:47:54;101103.06;;;19.27;84.96
55576;BME280;41437;45.478;9.116;2022-10-28T09:50:57;101101.13;;;19.27;84.66
55576;BME280;41437;45.478;9.116;2022-10-28T09:54:00;101099.63;;;19.40;84.25
55576;BME280;41437;45.478;9.116;2022-10-28T09:57:04;101112.41;;;19.56;82.66
55576;BME280;41437;45.478;9.116;2022-10-28T10:00:11;101116.31;;;19.61;82.82
55576;BME280;41437;45.478;9.116;2022-10-28T10:03:15;101101.94;;;19.77;81.96
55576;BME280;41437;45.478;9.116;2022-10-28T10:06:19;101107.53;;;20.06;80.84
55576;BME280;41437;45.478;9.116;2022-10-28T10:09:24;101099.84;;;20.22;79.18
55576;BME280;41437;45.478;9.116;2022-10-28T10:12:28;101099.47;;;20.34;78.79
55576;BME280;41437;45.478;9.116;2022-10-28T10:15:35;101098.13;;;20.26;78.35
55576;BME280;41437;45.478;9.116;2022-10-28T10:18:39;101095.66;;;20.20;79.40
55576;BME280;41437;45.478;9.116;2022-10-28T10:21:48;101094.63;;;20.11;79.78
55576;BME280;41437;45.478;9.116;2022-10-28T10:24:50;101094.16;;;20.03;81.19
55576;BME280;41437;45.478;9.116;2022-10-28T10:27:53;101082.50;;;19.91;81.28
55576;BME280;41437;45.478;9.116;2022-10-28T10:31:00;101081.31;;;19.97;81.75
55576;BME280;41437;45.478;9.116;2022-10-28T10:34:02;101085.78;;;20.03;81.77
55576;BME280;41437;45.478;9.116;2022-10-28T10:37:04;101080.38;;;20.12;81.98
55576;BME280;41437;45.478;9.116;2022-10-28T10:40:16;101084.47;;;20.20;80.46
55576;BME280;41437;45.478;9.116;2022-10-28T10:43:23;101077.22;;;20.19;80.63
55576;BME280;41437;45.478;9.116;2022-10-28T10:46:31;101076.44;;;20.13;81.87
55576;BME280;41437;45.478;9.116;2022-10-28T10:49:33;101070.00;;;20.13;81.58
55576;BME280;41437;45.478;9.116;2022-10-28T10:52:35;101059.28;;;20.20;81.11
55576;BME280;41437;45.478;9.116;2022-10-28T10:55:38;101064.66;;;20.16;81.27
55576;BME280;41437;45.478;9.116;2022-10-28T10:58:46;101054.56;;;20.15;81.26
55576;BME280;41437;45.478;9.116;2022-10-28T11:01:52;101038.47;;;20.07;82.01
55576;BME280;41437;45.478;9.116;2022-10-28T11:04:57;101047.63;;;20.13;81.60
55576;BME280;41437;45.478;9.116;2022-10-28T11:08:00;101048.28;;;20.28;79.82
55576;BME280;41437;45.478;9.116;2022-10-28T11:11:13;101043.81;;;20.27;80.01
55576;BME280;41437;45.478;9.116;2022-10-28T11:14:19;101045.38;;;20.39;79.50
55576;BME280;41437;45.478;9.116;2022-10-28T11:17:26;101042.59;;;20.39;79.63
55576;BME280;41437;45.478;9.116;2022-10-28T11:20:37;101041.69;;;20.43;78.62
55576;BME280;41437;45.478;9.116;2022-10-28T11:23:51;101037.44;;;20.46;78.88
55576;BME280;41437;45.478;9.116;2022-10-28T11:27:00;101032.06;;;20.54;78.04
55576;BME280;41437;45.478;9.116;2022-10-28T11:30:10;101036.00;;;20.53;78.16
55576;BME280;41437;45.478;9.116;2022-10-28T11:33:18;101023.44;;;20.46;77.99
55576;BME280;41437;45.478;9.116;2022-10-28T11:36:24;101021.47;;;20.51;84.44
55576;BME280;41437;45.478;9.116;2022-10-28T11:39:33;101016.88;;;20.61;80.47
55576;BME280;41437;45.478;9.116;2022-10-28T11:42:42;101002.28;;;20.64;86.12
55576;BME280;41437;45.478;9.116;2022-10-28T11:45:50;101009.75;;;20.44;78.51
55576;BME280;41437;45.478;9.116;2022-10-28T11:49:07;101001.06;;;20.22;79.38
55576;BME280;41437;45.478;9.116;2022-10-28T11:52:23;100992.63;;;20.03;81.07
55576;BME280;41437;45.478;9.116;2022-10-28T11:55:32;100983.53;;;19.87;80.83
55576;BME280;41437;45.478;9.116;2022-10-28T11:58:42;100983.47;;;19.92;80.90
55576;BME280;41437;45.478;9.116;2022-10-28T12:01:51;100989.50;;;20.04;80.98
55576;BME280;41437;45.478;9.116;2022-10-28T12:05:02;100984.88;;;20.19;80.32
55576;BME280;41437;45.478;9.116;2022-10-28T12:08:25;100986.06;;;20.37;79.15
55576;BME280;41437;45.478;9.116;2022-10-28T12:11:40;100980.47;;;20.61;77.45
55576;BME280;41437;45.478;9.116;2022-10-28T12:14:53;100974.63;;;20.57;77.52
55576;BME280;41437;45.478;9.116;2022-10-28T12:18:02;100972.47;;;20.73;76.28
55576;BME280;41437;45.478;9.116;2022-10-28T12:21:14;100967.84;;;20.82;76.07
55576;BME280;41437;45.478;9.116;2022-10-28T12:24:20;100969.00;;;21.00;75.89
55576;BME280;41437;45.478;9.116;2022-10-28T12:27:27;100968.72;;;21.15;73.37
55576;BME280;41437;45.478;9.116;2022-10-28T12:30:32;100974.94;;;21.31;72.86
55576;BME280;41437;45.478;9.116;2022-10-28T12:33:39;100960.91;;;21.50;72.93
55576;BME280;41437;45.478;9.116;2022-10-28T12:36:48;100960.56;;;21.70;70.67
55576;BME280;41437;45.478;9.116;2022-10-28T12:39:55;100950.88;;;21.76;68.92
55576;BME280;41437;45.478;9.116;2022-10-28T12:43:03;100949.00;;;21.72;70.01
55576;BME280;41437;45.478;9.116;2022-10-28T12:46:15;100949.22;;;21.75;69.66
55576;BME280;41437;45.478;9.116;2022-10-28T12:49:22;100938.44;;;21.69;67.69
55576;BME280;41437;45.478;9.116;2022-10-28T12:52:41;100939.47;;;21.73;68.22
55576;BME280;41437;45.478;9.116;2022-10-28T12:55:49;100934.16;;;21.85;64.87
55576;BME280;41437;45.478;9.116;2022-10-28T12:58:56;100944.06;;;21.96;63.25
55576;BME280;41437;45.478;9.116;2022-10-28T13:02:10;100935.75;;;21.91;63.23
55576;BME280;41437;45.478;9.116;2022-10-28T13:05:18;100932.81;;;21.69;64.08
55576;BME280;41437;45.478;9.116;2022-10-28T13:16:04;100919.38;;;21.00;68.22
55576;BME280;41437;45.478;9.116;2022-10-28T13:19:26;100914.69;;;20.96;68.06
55576;BME280;41437;45.478;9.116;2022-10-28T13:22:48;100910.91;;;20.87;68.87
55576;BME280;41437;45.478;9.116;2022-10-28T13:25:59;100910.91;;;20.87;68.65
55576;BME280;41437;45.478;9.116;2022-10-28T13:29:17;100905.31;;;20.87;69.44
55576;BME280;41437;45.478;9.116;2022-10-28T13:32:32;100915.75;;;21.00;67.61
55576;BME280;41437;45.478;9.116;2022-10-28T13:35:34;100909.81;;;21.20;67.35
55576;BME280;41437;45.478;9.116;2022-10-28T13:38:37;100905.13;;;21.35;67.41
55576;BME280;41437;45.478;9.116;2022-10-28T13:41:40;100905.75;;;21.45;67.58
55576;BME280;41437;45.478;9.116;2022-10-28T13:44:47;100897.88;;;21.47;66.59
55576;BME280;41437;45.478;9.116;2022-10-28T13:47:49;100904.91;;;21.45;66.90
55576;BME280;41437;45.478;9.116;2022-10-28T13:54:36;100886.22;;;21.40;65.71
55576;BME280;41437;45.478;9.116;2022-10-28T13:57:58;100902.78;;;21.55;64.14
55576;BME280;41437;45.478;9.116;2022-10-28T14:01:34;100903.72;;;21.65;62.82
55576;BME280;41437;45.478;9.116;2022-10-28T14:04:37;100899.78;;;21.66;62.37
55576;BME280;41437;45.478;9.116;2022-10-28T14:07:49;100901.97;;;21.69;59.85
55576;BME280;41437;45.478;9.116;2022-10-28T14:10:59;100902.69;;;21.74;60.18
55576;BME280;41437;45.478;9.116;2022-10-28T14:14:03;100890.09;;;21.72;60.75
55576;BME280;41437;45.478;9.116;2022-10-28T14:17:15;100903.53;;;21.75;60.65
55576;BME280;41437;45.478;9.116;2022-10-28T14:20:25;100891.25;;;21.71;59.48
55576;BME280;41437;45.478;9.116;2022-10-28T14:27:24;100902.47;;;21.71;62.88
55576;BME280;41437;45.478;9.116;2022-10-28T14:30:29;100897.06;;;21.61;62.96
55576;BME280;41437;45.478;9.116;2022-10-28T14:33:30;100884.81;;;21.56;62.33
55576;BME280;41437;45.478;9.116;2022-10-28T14:36:34;100892.91;;;21.58;61.16
55576;BME280;41437;45.478;9.116;2022-10-28T14:39:57;100896.03;;;21.56;62.53
55576;BME280;41437;45.478;9.116;2022-10-28T14:43:20;100896.41;;;21.50;61.56
55576;BME280;41437;45.478;9.116;2022-10-28T14:46:35;100889.97;;;21.49;61.93
55576;BME280;41437;45.478;9.116;2022-10-28T14:49:54;100894.97;;;21.52;62.44
55576;BME280;41437;45.478;9.116;2022-10-28T14:53:00;100899.09;;;21.41;63.63
55576;BME280;41437;45.478;9.116;2022-10-28T14:56:08;100895.03;;;21.33;63.63
55576;BME280;41437;45.478;9.116;2022-10-28T14:59:21;100886.16;;;21.26;65.41
55576;BME280;41437;45.478;9.116;2022-10-28T15:02:27;100894.72;;;21.35;64.95
55576;BME280;41437;45.478;9.116;2022-10-28T15:05:29;100897.44;;;21.40;64.72
55576;BME280;41437;45.478;9.116;2022-10-28T15:08:32;100891.22;;;21.43;64.83
55576;BME280;41437;45.478;9.116;2022-10-28T15:11:34;100890.38;;;21.43;65.48
55576;BME280;41437;45.478;9.116;2022-10-28T15:14:38;100886.22;;;21.40;64.85
55576;BME280;41437;45.478;9.116;2022-10-28T15:17:40;100894.88;;;21.25;65.96
55576;BME280;41437;45.478;9.116;2022-10-28T15:20:42;100898.81;;;21.24;66.16
55576;BME280;41437;45.478;9.116;2022-10-28T15:23:44;100891.19;;;21.11;66.07
55576;BME280;41437;45.478;9.116;2022-10-28T15:29:59;100882.34;;;20.84;67.93
55576;BME280;41437;45.478;9.116;2022-10-28T15:33:17;100877.38;;;20.63;68.60
55576;BME280;41437;45.478;9.116;2022-10-28T15:36:21;100876.47;;;20.48;70.59
55576;BME280;41437;45.478;9.116;2022-10-28T15:39:25;100859.34;;;20.31;70.75
55576;BME280;41437;45.478;9.116;2022-10-28T15:42:36;100870.69;;;20.21;71.60
55576;BME280;41437;45.478;9.116;2022-10-28T15:45:39;100868.91;;;20.06;73.96
55576;BME280;41437;45.478;9.116;2022-10-28T15:48:42;100861.88;;;19.84;74.62
55576;BME280;41437;45.478;9.116;2022-10-28T15:52:20;100869.56;;;19.74;72.96
55576;BME280;41437;45.478;9.116;2022-10-28T15:55:25;100870.28;;;19.61;72.08
55576;BME280;41437;45.478;9.116;2022-10-28T15:58:33;100866.97;;;19.53;73.78
55576;BME280;41437;45.478;9.116;2022-10-28T16:01:37;100860.66;;;19.43;74.41
55576;BME280;41437;45.478;9.116;2022-10-28T16:04:43;100868.34;;;19.27;74.43
55576;BME280;41437;45.478;9.116;2022-10-28T16:07:45;100861.78;;;19.13;74.58
55576;BME280;41437;45.478;9.116;2022-10-28T16:10:49;100870.84;;;18.99;75.50
55576;BME280;41437;45.478;9.116;2022-10-28T16:13:51;100864.53;;;18.83;76.55
55576;BME280;41437;45.478;9.116;2022-10-28T16:16:53;100862.69;;;18.69;77.19
55576;BME280;41437;45.478;9.116;2022-10-28T16:19:58;100866.13;;;18.55;80.13
55576;BME280;41437;45.478;9.116;2022-10-28T16:23:01;100865.34;;;18.45;80.06
55576;BME280;41437;45.478;9.116;2022-10-28T16:26:03;100871.28;;;18.28;81.58